Time;durP1;ratioP1;P1;durP2;ratioP2;P2;SDS_P1;SDS_P2;PMS_P1;PMS_P2;Temp;Humidity;BMP_temperature;BMP_pressure;BME280_temperature;BME280_humidity;BME280_pressure;Samples;Min_cycle;Max_cycle;Signal;HPM_P1;HPM_P2
2023/02/15 00:01:11;;;;;;;0.83;0.83;;;;;;;2.10;100.00;101774.16;4971872;28;20182;-82
2023/02/15 00:03:37;;;;;;;1.07;1.07;;;;;;;2.01;100.00;101781.69;4971590;28;20177;-80
2023/02/15 00:06:04;;;;;;;0.30;0.30;;;;;;;1.93;100.00;101776.59;4972048;28;20449;-81
2023/02/15 00:08:29;;;;;;;0.00;0.00;;;;;;;1.84;100.00;101774.38;4971780;28;20281;-82
2023/02/15 00:11:05;;;;;;;0.20;0.20;;;;;;;1.89;100.00;101771.88;4971783;28;20260;-79
2023/02/15 00:13:31;;;;;;;0.00;0.00;;;;;;;1.79;100.00;101757.03;4971382;28;20296;-82
2023/02/15 00:16:04;;;;;;;0.00;0.00;;;;;;;1.90;100.00;101763.56;4971824;28;20592;-82
2023/02/15 00:18:30;;;;;;;0.00;0.00;;;;;;;1.82;100.00;101757.63;4970343;28;20185;-79
2023/02/15 00:20:56;;;;;;;0.10;0.10;;;;;;;1.84;100.00;101759.03;4971786;28;20667;-81
2023/02/15 00:23:21;;;;;;;0.00;0.00;;;;;;;1.89;100.00;101766.47;4971549;28;20201;-81
2023/02/15 00:25:46;;;;;;;0.00;0.00;;;;;;;1.98;100.00;101762.44;4972095;28;20189;-81
2023/02/15 00:28:12;;;;;;;0.00;0.00;;;;;;;2.03;100.00;101759.94;4971033;28;20250;-78
2023/02/15 00:30:37;;;;;;;0.30;0.30;;;;;;;1.99;100.00;101750.63;4971616;28;20533;-84
2023/02/15 00:33:02;;;;;;;0.00;0.00;;;;;;;1.92;100.00;101749.88;4971489;28;20202;-81
2023/02/15 00:35:27;;;;;;;0.00;0.00;;;;;;;1.82;100.00;101742.28;4971353;28;20610;-79
2023/02/15 00:37:53;;;;;;;0.00;0.00;;;;;;;1.84;100.00;101748.25;4971532;28;20178;-84
2023/02/15 00:40:18;;;;;;;0.87;0.87;;;;;;;1.83;100.00;101745.78;4971483;28;20178;-80
2023/02/15 00:42:43;;;;;;;0.00;0.00;;;;;;;1.88;100.00;101729.78;4971417;28;20174;-82
2023/02/15 00:45:09;;;;;;;0.00;0.00;;;;;;;1.99;100.00;101742.53;4971532;28;20562;-78
2023/02/15 00:47:34;;;;;;;0.10;0.10;;;;;;;1.94;100.00;101739.69;4971497;28;20519;-80
2023/02/15 00:49:59;;;;;;;0.23;0.23;;;;;;;1.96;100.00;101730.34;4971424;28;20558;-81
2023/02/15 00:52:25;;;;;;;0.00;0.00;;;;;;;1.97;100.00;101733.84;4971490;28;20637;-83
2023/02/15 00:54:50;;;;;;;0.43;0.43;;;;;;;2.05;100.00;101733.56;4971130;28;20217;-79
2023/02/15 00:57:15;;;;;;;0.00;0.00;;;;;;;1.96;100.00;101726.81;4971373;28;20182;-81
2023/02/15 00:59:41;;;;;;;2.17;2.17;;;;;;;2.05;100.00;101729.00;4971187;28;20221;-79
2023/02/15 01:02:06;;;;;;;0.00;0.00;;;;;;;2.08;100.00;101735.81;4971337;28;20186;-81
2023/02/15 01:04:31;;;;;;;0.00;0.00;;;;;;;1.97;100.00;101721.19;4970969;28;20649;-83
2023/02/15 01:06:56;;;;;;;1.33;1.20;;;;;;;1.97;100.00;101723.88;4971536;28;20225;-83
2023/02/15 01:09:22;;;;;;;2.03;1.93;;;;;;;2.12;100.00;101718.13;4971535;28;20693;-80
2023/02/15 01:11:47;;;;;;;2.30;1.70;;;;;;;2.45;100.00;101715.06;4971013;28;20178;-79
2023/02/15 01:14:13;;;;;;;8.47;3.37;;;;;;;2.83;100.00;101722.88;4970889;28;20526;-82
2023/02/15 01:16:38;;;;;;;2.97;2.77;;;;;;;3.15;100.00;101719.94;4971299;28;20241;-82
2023/02/15 01:19:04;;;;;;;4.20;3.53;;;;;;;3.40;100.00;101709.78;4971120;28;20249;-79
2023/02/15 01:21:29;;;;;;;0.20;0.20;;;;;;;3.52;100.00;101723.31;4971082;28;20188;-83
2023/02/15 01:23:55;;;;;;;0.70;0.70;;;;;;;3.53;100.00;101730.34;4971591;28;20201;-82
2023/02/15 01:26:20;;;;;;;0.00;0.00;;;;;;;3.53;100.00;101731.19;4971278;28;20214;-81
2023/02/15 01:28:46;;;;;;;1.70;1.60;;;;;;;3.54;100.00;101734.69;4970955;28;20186;-80
2023/02/15 01:31:16;;;;;;;0.00;0.00;;;;;;;3.51;100.00;101732.47;4969798;28;20253;-82
2023/02/15 01:33:42;;;;;;;0.27;0.27;;;;;;;3.63;100.00;101730.63;4970662;28;20202;-83
2023/02/15 01:36:07;;;;;;;0.00;0.00;;;;;;;3.61;100.00;101731.88;4971354;28;20193;-82
2023/02/15 01:38:34;;;;;;;0.00;0.00;;;;;;;3.33;100.00;101725.28;4971431;28;20253;-83
2023/02/15 01:43:55;;;;;;;0.00;0.00;;;;;;;3.08;100.00;101732.72;4974289;28;20193;-83
2023/02/15 01:46:26;;;;;;;1.10;1.10;;;;;;;3.08;100.00;101733.53;4974478;28;20833;-83
2023/02/15 01:48:57;;;;;;;0.00;0.00;;;;;;;2.87;100.00;101726.75;4974222;28;20178;-82
2023/02/15 01:51:27;;;;;;;0.23;0.23;;;;;;;2.83;100.00;101720.19;4974334;28;20420;-85
2023/02/15 01:54:12;;;;;;;0.00;0.00;;;;;;;2.55;100.00;101719.94;4974141;28;20268;-82
2023/02/15 01:56:39;;;;;;;0.00;0.00;;;;;;;2.51;100.00;101716.88;4974212;28;20239;-84
2023/02/15 01:59:09;;;;;;;1.60;0.83;;;;;;;2.44;100.00;101713.41;4973937;28;20224;-83
2023/02/15 02:01:35;;;;;;;0.00;0.00;;;;;;;2.38;100.00;101717.84;4974032;28;20174;-83
2023/02/15 02:04:35;;;;;;;0.00;0.00;;;;;;;2.38;100.00;101727.81;4973821;28;20698;-79
2023/02/15 02:07:03;;;;;;;3.20;1.70;;;;;;;1.92;100.00;101712.16;4973904;28;20178;-81
2023/02/15 02:09:29;;;;;;;1.73;1.73;;;;;;;1.65;100.00;101704.31;4973767;28;20178;-78
2023/02/15 02:11:55;;;;;;;0.77;0.77;;;;;;;1.60;100.00;101706.84;4973643;28;20646;-83
2023/02/15 02:14:22;;;;;;;0.00;0.00;;;;;;;1.58;100.00;101700.00;4973555;28;20292;-82
2023/02/15 02:17:07;;;;;;;1.60;1.13;;;;;;;1.48;100.00;101701.34;4974096;28;20633;-80
2023/02/15 02:19:41;;;;;;;1.33;1.33;;;;;;;1.31;100.00;101699.44;4973663;28;20166;-78
2023/02/15 02:22:42;;;;;;;0.30;0.30;;;;;;;1.16;100.00;101695.19;4973669;28;20637;-83
2023/02/15 02:25:45;;;;;;;1.30;1.23;;;;;;;0.98;100.00;101683.50;4973543;28;20178;-78
2023/02/15 02:28:31;;;;;;;0.63;0.63;;;;;;;0.90;100.00;101676.53;4973599;28;20185;-77
2023/02/15 02:31:21;;;;;;;1.57;1.17;;;;;;;0.93;100.00;101680.66;4972484;28;20231;-82
2023/02/15 02:33:57;;;;;;;0.00;0.00;;;;;;;0.95;100.00;101674.00;4973282;28;20200;-77
2023/02/15 02:36:36;;;;;;;0.00;0.00;;;;;;;0.96;100.00;101670.25;4973995;28;20825;-78
2023/02/15 02:39:28;;;;;;;0.50;0.50;;;;;;;1.06;100.00;101667.09;4973405;28;20166;-75
2023/02/15 02:42:05;;;;;;;1.43;1.43;;;;;;;1.04;100.00;101647.66;4973424;28;20178;-73
2023/02/15 02:44:45;;;;;;;1.37;1.30;;;;;;;1.05;100.00;101657.38;4973480;28;20181;-78
2023/02/15 02:47:32;;;;;;;0.63;0.63;;;;;;;0.98;100.00;101654.72;4973254;28;20205;-73
2023/02/15 02:50:01;;;;;;;1.43;1.33;;;;;;;0.93;100.00;101649.19;4972944;28;20197;-73
2023/02/15 02:52:43;;;;;;;0.00;0.00;;;;;;;0.87;100.00;101642.00;4973168;28;20186;-74
2023/02/15 02:55:19;;;;;;;0.00;0.00;;;;;;;0.85;100.00;101638.69;4971475;28;20717;-73
2023/02/15 02:58:05;;;;;;;2.07;0.50;;;;;;;0.76;100.00;101640.81;4972970;28;20232;-74
2023/02/15 03:00:38;;;;;;;0.67;0.67;;;;;;;0.71;100.00;101631.72;4973166;28;20182;-73
2023/02/15 03:03:12;;;;;;;0.00;0.00;;;;;;;0.72;100.00;101633.38;4972911;28;20235;-75
2023/02/15 03:05:44;;;;;;;0.63;0.63;;;;;;;0.71;100.00;101634.44;4971513;28;20178;-75
2023/02/15 03:08:12;;;;;;;2.50;1.03;;;;;;;0.66;100.00;101626.19;4972731;28;20180;-70
2023/02/15 03:10:40;;;;;;;1.40;1.30;;;;;;;0.67;100.00;101627.84;4972737;28;20189;-70
2023/02/15 03:13:06;;;;;;;0.30;0.30;;;;;;;0.58;100.00;101620.03;4972823;28;20532;-71
2023/02/15 03:18:27;;;;;;;0.07;0.07;;;;;;;0.44;100.00;101615.78;4972598;28;20201;-71
2023/02/15 03:20:54;;;;;;;2.13;1.23;;;;;;;0.45;100.00;101614.75;4972727;28;20410;-71
2023/02/15 03:23:24;;;;;;;0.10;0.10;;;;;;;0.38;100.00;101619.31;4972496;28;20236;-70
2023/02/15 03:25:58;;;;;;;0.00;0.00;;;;;;;0.40;100.00;101611.84;4972464;28;20876;-70
2023/02/15 03:28:30;;;;;;;0.00;0.00;;;;;;;0.29;100.00;101608.00;4972480;28;20209;-71
2023/02/15 03:31:00;;;;;;;0.00;0.00;;;;;;;0.26;100.00;101615.66;4972410;28;20174;-71
2023/02/15 03:33:27;;;;;;;0.00;0.00;;;;;;;0.22;100.00;101609.06;4972044;28;20202;-70
2023/02/15 03:36:02;;;;;;;0.10;0.10;;;;;;;0.21;100.00;101610.94;4972182;28;20680;-74
2023/02/15 03:38:40;;;;;;;0.00;0.00;;;;;;;0.09;100.00;101604.56;4972283;28;20189;-71
2023/02/15 03:41:10;;;;;;;1.67;1.57;;;;;;;0.05;100.00;101602.53;4970945;28;20186;-71
2023/02/15 03:43:58;;;;;;;1.33;1.33;;;;;;;0.05;100.00;101599.84;4970681;28;20533;-72
2023/02/15 03:46:29;;;;;;;0.93;0.93;;;;;;;-0.01;100.00;101599.66;4972154;28;20232;-71
2023/02/15 03:49:14;;;;;;;0.87;0.87;;;;;;;-0.02;100.00;101600.69;4972014;28;20434;-71
2023/02/15 03:51:43;;;;;;;0.93;0.93;;;;;;;0.04;100.00;101601.72;4972124;28;20456;-71
2023/02/15 03:54:12;;;;;;;1.37;1.27;;;;;;;-0.07;100.00;101603.19;4971805;28;20803;-70
2023/02/15 03:56:41;;;;;;;0.50;0.50;;;;;;;-0.07;100.00;101605.88;4971978;28;20504;-71
2023/02/15 04:02:00;;;;;;;0.40;0.40;;;;;;;-0.22;100.00;101602.63;4971354;28;20424;-70
2023/02/15 04:04:41;;;;;;;0.63;0.43;;;;;;;-0.34;100.00;101598.94;4971894;28;20474;-79
2023/02/15 04:07:09;;;;;;;0.83;0.83;;;;;;;-0.36;100.00;101607.22;4972489;28;20936;-80
2023/02/15 04:12:19;;;;;;;1.37;1.37;;;;;;;-0.31;100.00;101611.94;4971876;28;20412;-80
2023/02/15 04:17:29;;;;;;;0.53;0.53;;;;;;;-0.42;100.00;101597.31;4971604;28;20421;-78
2023/02/15 04:25:22;;;;;;;1.00;1.00;;;;;;;-0.37;100.00;101604.75;4971412;28;20773;-78
2023/02/15 04:27:50;;;;;;;0.50;0.50;;;;;;;-0.42;100.00;101604.56;4971462;28;20417;-73
2023/02/15 04:30:18;;;;;;;0.00;0.00;;;;;;;-0.42;100.00;101596.50;4970339;28;20563;-84
2023/02/15 04:32:44;;;;;;;0.07;0.07;;;;;;;-0.42;100.00;101597.31;4971690;28;20182;-79
2023/02/15 04:35:09;;;;;;;2.23;1.80;;;;;;;-0.48;100.00;101584.72;4971078;28;20472;-81
2023/02/15 04:37:35;;;;;;;0.00;0.00;;;;;;;-0.46;100.00;101579.97;4971468;28;20174;-85
2023/02/15 04:40:00;;;;;;;1.27;1.27;;;;;;;-0.41;100.00;101574.81;4971539;28;20185;-80
2023/02/15 04:42:26;;;;;;;0.73;0.73;;;;;;;-0.44;100.00;101577.06;4971357;28;20265;-75
2023/02/15 04:44:52;;;;;;;1.27;1.27;;;;;;;-0.38;100.00;101571.69;4970010;28;20201;-74
2023/02/15 04:47:17;;;;;;;4.43;0.90;;;;;;;-0.40;100.00;101572.94;4971647;28;20244;-78
2023/02/15 04:49:42;;;;;;;1.07;1.07;;;;;;;-0.51;100.00;101570.91;4970151;28;20233;-79
2023/02/15 04:52:08;;;;;;;2.87;2.63;;;;;;;-0.61;100.00;101572.16;4971393;28;20206;-72
2023/02/15 04:54:33;;;;;;;1.73;1.63;;;;;;;-0.73;100.00;101573.00;4971107;28;20681;-82
2023/02/15 04:56:58;;;;;;;0.40;0.40;;;;;;;-0.70;100.00;101565.38;4971384;28;20208;-70
2023/02/15 04:59:24;;;;;;;1.63;1.53;;;;;;;-0.72;100.00;101566.63;4971541;28;20953;-78
2023/02/15 05:01:49;;;;;;;0.50;0.50;;;;;;;-0.68;100.00;101566.00;4971541;28;20539;-69
2023/02/15 05:04:14;;;;;;;0.30;0.30;;;;;;;-0.64;100.00;101567.22;4971067;28;20617;-79
2023/02/15 05:06:40;;;;;;;1.60;1.57;;;;;;;-0.63;100.00;101566.19;4971341;28;20637;-72
2023/02/15 05:09:05;;;;;;;0.00;0.00;;;;;;;-0.70;100.00;101568.06;4971275;28;20178;-74
2023/02/15 05:11:30;;;;;;;0.90;0.90;;;;;;;-0.76;100.00;101563.53;4971134;28;20170;-77
2023/02/15 05:13:56;;;;;;;0.30;0.30;;;;;;;-0.71;100.00;101562.91;4973533;28;20205;-82
2023/02/15 05:16:21;;;;;;;2.67;0.93;;;;;;;-0.76;100.00;101552.78;4975022;28;20571;-81
2023/02/15 05:18:46;;;;;;;0.23;0.23;;;;;;;-0.73;100.00;101551.53;4974795;28;20257;-78
2023/02/15 05:21:18;;;;;;;1.50;1.50;;;;;;;-0.65;100.00;101557.53;4974831;28;20177;-81
2023/02/15 05:23:43;;;;;;;1.53;1.43;;;;;;;-0.58;100.00;101551.31;4974428;28;20208;-81
2023/02/15 05:28:56;;;;;;;0.00;0.00;;;;;;;-0.45;100.00;101546.72;4974897;28;20709;-70
2023/02/15 05:31:21;;;;;;;0.30;0.30;;;;;;;-0.39;100.00;101551.25;4974599;28;20504;-73
2023/02/15 05:33:47;;;;;;;0.97;0.97;;;;;;;-0.44;100.00;101551.06;4973059;28;20198;-79
2023/02/15 05:36:13;;;;;;;0.77;0.77;;;;;;;-0.57;100.00;101543.06;4974416;28;20260;-82
2023/02/15 05:38:38;;;;;;;1.00;1.00;;;;;;;-0.63;100.00;101555.44;4974607;28;20575;-76
2023/02/15 05:41:08;;;;;;;1.17;1.17;;;;;;;-0.70;100.00;101551.97;4974520;28;20178;-79
2023/02/15 05:43:34;;;;;;;1.90;1.90;;;;;;;-0.71;100.00;101546.81;4974128;28;20642;-74
2023/02/15 05:46:00;;;;;;;0.47;0.47;;;;;;;-0.71;100.00;101550.31;4974394;28;20780;-82
2023/02/15 05:48:26;;;;;;;0.40;0.40;;;;;;;-0.74;100.00;101544.53;4974262;28;20186;-81
2023/02/15 05:51:07;;;;;;;1.33;1.30;;;;;;;-0.70;100.00;101554.66;4974073;28;20593;-78
2023/02/15 05:53:35;;;;;;;0.80;0.80;;;;;;;-0.71;100.00;101557.53;4973935;28;20527;-73
2023/02/15 05:56:02;;;;;;;1.57;0.57;;;;;;;-0.81;100.00;101560.66;4974259;28;20428;-69
2023/02/15 05:58:34;;;;;;;0.97;0.50;;;;;;;-0.87;100.00;101553.41;4974085;28;20422;-82
2023/02/15 06:01:08;;;;;;;0.83;0.43;;;;;;;-0.93;100.00;101556.94;4974492;28;20520;-77
2023/02/15 06:03:33;;;;;;;0.60;0.60;;;;;;;-0.85;100.00;101555.91;4972523;28;20785;-81
2023/02/15 06:05:58;;;;;;;0.63;0.63;;;;;;;-0.84;100.00;101549.50;4974281;28;21005;-74
2023/02/15 06:08:24;;;;;;;0.33;0.33;;;;;;;-0.97;100.00;101545.00;4973808;28;20170;-84
2023/02/15 06:10:49;;;;;;;0.63;0.60;;;;;;;-1.01;100.00;101544.59;4973897;28;20575;-79
2023/02/15 06:13:14;;;;;;;0.10;0.10;;;;;;;-0.95;100.00;101548.28;4973476;28;20197;-74
2023/02/15 06:15:43;;;;;;;0.00;0.00;;;;;;;-0.88;100.00;101553.63;4973605;28;20174;-83
2023/02/15 06:18:08;;;;;;;0.20;0.20;;;;;;;-0.93;100.00;101546.22;4973903;28;20177;-77
2023/02/15 06:20:36;;;;;;;1.03;1.03;;;;;;;-1.02;100.00;101536.72;4973688;28;20866;-71
2023/02/15 06:23:01;;;;;;;0.10;0.10;;;;;;;-1.04;100.00;101533.44;4973740;28;20537;-74
2023/02/15 06:25:27;;;;;;;0.00;0.00;;;;;;;-0.95;100.00;101540.25;4973038;28;20413;-84
2023/02/15 06:27:52;;;;;;;3.90;3.70;;;;;;;-0.84;100.00;101528.88;4973385;28;20622;-76
2023/02/15 06:30:17;;;;;;;1.23;1.23;;;;;;;-0.83;100.00;101535.06;4973546;28;20194;-77
2023/02/15 06:32:43;;;;;;;0.10;0.10;;;;;;;-0.83;100.00;101541.25;4972254;28;20409;-80
2023/02/15 06:35:08;;;;;;;0.57;0.50;;;;;;;-0.84;100.00;101539.63;4972894;28;20289;-84
2023/02/15 06:37:33;;;;;;;0.20;0.20;;;;;;;-0.87;100.00;101542.69;4973392;28;20170;-70
2023/02/15 06:39:59;;;;;;;1.03;0.60;;;;;;;-0.85;100.00;101539.81;4972095;28;20277;-71
2023/02/15 06:42:24;;;;;;;0.00;0.00;;;;;;;-0.84;100.00;101547.66;4973255;28;20177;-74
2023/02/15 06:44:50;;;;;;;0.03;0.03;;;;;;;-0.83;100.00;101546.63;4973071;28;20709;-79
2023/02/15 06:47:15;;;;;;;0.00;0.00;;;;;;;-0.78;100.00;101544.13;4973376;28;20186;-80
2023/02/15 06:49:40;;;;;;;0.00;0.00;;;;;;;-0.70;100.00;101538.56;4973121;28;20514;-79
2023/02/15 06:52:06;;;;;;;0.00;0.00;;;;;;;-0.70;100.00;101538.56;4973119;28;20181;-78
2023/02/15 06:54:31;;;;;;;0.10;0.10;;;;;;;-0.75;100.00;101535.66;4972782;28;20209;-78
2023/02/15 06:56:56;;;;;;;2.63;2.43;;;;;;;-0.78;100.00;101529.88;4972906;28;20237;-75
2023/02/15 06:59:22;;;;;;;2.97;2.77;;;;;;;-0.93;100.00;101538.16;4973003;28;20236;-79
2023/02/15 07:01:48;;;;;;;0.00;0.00;;;;;;;-1.00;100.00;101534.69;4973042;28;20182;-79
2023/02/15 07:04:14;;;;;;;0.00;0.00;;;;;;;-0.98;100.00;101532.63;4972717;28;20174;-71
2023/02/15 07:06:39;;;;;;;0.17;0.17;;;;;;;-0.97;100.00;101520.84;4972900;28;20418;-75
2023/02/15 07:09:04;;;;;;;0.40;0.40;;;;;;;-1.00;100.00;101524.78;4972840;28;20637;-75
2023/02/15 07:14:14;;;;;;;5.93;1.80;;;;;;;-1.04;100.00;101518.16;4972574;28;20758;-82
2023/02/15 07:16:39;;;;;;;0.77;0.77;;;;;;;-1.01;100.00;101519.63;4971396;28;20504;-75
2023/02/15 07:19:05;;;;;;;0.00;0.00;;;;;;;-0.99;100.00;101523.75;4972545;28;20536;-81
2023/02/15 07:21:30;;;;;;;1.90;1.47;;;;;;;-0.93;100.00;101527.44;4972583;28;20243;-80
2023/02/15 07:23:57;;;;;;;1.37;1.37;;;;;;;-0.86;100.00;101524.75;4972388;28;20174;-78
2023/02/15 07:26:22;;;;;;;0.30;0.30;;;;;;;-0.85;100.00;101529.09;4972420;28;20229;-75
2023/02/15 07:28:47;;;;;;;0.00;0.00;;;;;;;-0.75;100.00;101522.25;4972444;28;20886;-78
2023/02/15 07:31:13;;;;;;;0.20;0.20;;;;;;;-0.62;100.00;101521.38;4972538;28;20785;-81
2023/02/15 07:33:38;;;;;;;0.70;0.70;;;;;;;-0.61;100.00;101513.13;4971944;28;20202;-74
2023/02/15 07:36:04;;;;;;;1.50;1.50;;;;;;;-0.62;100.00;101521.38;4971588;28;20251;-71
2023/02/15 07:38:32;;;;;;;0.20;0.13;;;;;;;-0.55;100.00;101532.13;4972088;28;20640;-70
2023/02/15 07:41:09;;;;;;;0.63;0.63;;;;;;;-0.51;100.00;101528.78;4972264;28;20517;-71
2023/02/15 07:43:36;;;;;;;1.00;1.00;;;;;;;-0.48;100.00;101536.41;4972037;28;20428;-72
2023/02/15 07:46:04;;;;;;;2.77;2.67;;;;;;;-0.44;100.00;101539.50;4972207;28;20465;-70
2023/02/15 07:48:30;;;;;;;0.93;0.93;;;;;;;-0.43;100.00;101533.94;4972109;28;20422;-73
2023/02/15 07:50:59;;;;;;;6.43;5.20;;;;;;;-0.37;100.00;101543.00;4970907;28;20425;-72
2023/02/15 07:53:24;;;;;;;3.00;2.80;;;;;;;-0.31;100.00;101544.81;4971569;28;20206;-73
2023/02/15 07:55:49;;;;;;;4.23;3.90;;;;;;;-0.23;100.00;101552.66;4972092;28;20802;-71
2023/02/15 07:58:15;;;;;;;4.87;4.43;;;;;;;-0.20;100.00;101549.53;4971945;28;20390;-70
2023/02/15 08:01:01;;;;;;;6.83;6.13;;;;;;;-0.14;100.00;101548.69;4971980;28;20656;-70
2023/02/15 08:03:26;;;;;;;3.50;3.20;;;;;;;-0.04;100.00;101543.66;4972136;28;20201;-72
2023/02/15 08:05:57;;;;;;;5.27;4.87;;;;;;;0.05;100.00;101556.88;4971823;28;20417;-71
2023/02/15 08:08:31;;;;;;;5.80;4.37;;;;;;;0.10;100.00;101543.59;4971875;28;20254;-73
2023/02/15 08:14:05;;;;;;;5.00;4.00;;;;;;;0.25;100.00;101558.41;4971610;28;20576;-71
2023/02/15 08:16:44;;;;;;;5.43;4.93;;;;;;;0.29;100.00;101554.25;4972200;28;20425;-72
2023/02/15 08:19:17;;;;;;;10.40;9.40;;;;;;;0.33;100.00;101540.38;4971811;28;20425;-78
2023/02/15 08:21:45;;;;;;;13.00;10.00;;;;;;;0.44;100.00;101537.81;4971778;28;20421;-72
2023/02/15 08:24:12;;;;;;;9.30;7.93;;;;;;;0.60;100.00;101531.09;4971482;28;20449;-71
2023/02/15 08:26:38;;;;;;;8.97;8.17;;;;;;;0.74;100.00;101526.44;4971493;28;20664;-71
2023/02/15 08:29:06;;;;;;;6.87;5.73;;;;;;;0.89;100.00;101521.53;4971555;28;20178;-71
2023/02/15 08:31:32;;;;;;;4.63;4.23;;;;;;;0.99;100.00;101521.03;4971554;28;20432;-71
2023/02/15 08:33:58;;;;;;;1.03;1.03;;;;;;;1.14;100.00;101519.63;4971082;28;20472;-72
2023/02/15 08:36:27;;;;;;;0.00;0.00;;;;;;;1.25;100.00;101519.94;4971606;28;20524;-70
2023/02/15 08:38:52;;;;;;;4.73;2.73;;;;;;;1.43;100.00;101519.94;4971411;28;20639;-71
2023/02/15 08:41:23;;;;;;;2.43;1.37;;;;;;;1.62;100.00;101513.53;4971467;28;20189;-71
2023/02/15 08:43:52;;;;;;;0.63;0.63;;;;;;;1.90;100.00;101515.66;4971393;28;20246;-71
2023/02/15 08:46:17;;;;;;;0.50;0.50;;;;;;;2.13;100.00;101500.63;4971632;28;20193;-71
2023/02/15 08:48:44;;;;;;;0.50;0.50;;;;;;;2.22;100.00;101504.66;4973928;28;20174;-71
2023/02/15 08:51:14;;;;;;;0.90;0.90;;;;;;;2.23;100.00;101495.50;4975663;28;20174;-72
2023/02/15 08:53:42;;;;;;;0.00;0.00;;;;;;;2.43;100.00;101503.28;4973930;28;20648;-71
2023/02/15 08:56:08;;;;;;;0.00;0.00;;;;;;;2.68;100.00;101504.75;4975311;28;20519;-71
2023/02/15 08:58:34;;;;;;;8.40;8.10;;;;;;;2.68;100.00;101503.91;4975383;28;20650;-71
2023/02/15 09:01:02;;;;;;;0.00;0.00;;;;;;;2.80;100.00;101493.16;4975275;28;20189;-71
2023/02/15 09:03:28;;;;;;;0.00;0.00;;;;;;;2.93;100.00;101498.31;4974974;28;20170;-71
2023/02/15 09:05:59;;;;;;;0.63;0.63;;;;;;;3.19;100.00;101502.41;4973972;28;20178;-72
2023/02/15 09:08:25;;;;;;;0.00;0.00;;;;;;;3.09;100.00;101507.59;4974948;28;20264;-70
2023/02/15 09:10:50;;;;;;;0.00;0.00;;;;;;;3.12;100.00;101501.72;4975075;28;20181;-72
2023/02/15 09:13:15;;;;;;;0.00;0.00;;;;;;;3.21;100.00;101497.59;4974851;28;20182;-70
2023/02/15 09:15:41;;;;;;;0.00;0.00;;;;;;;3.28;100.00;101506.38;4974951;28;20182;-73
2023/02/15 09:18:06;;;;;;;0.10;0.10;;;;;;;3.36;100.00;101503.34;4974866;28;20543;-72
2023/02/15 09:20:34;;;;;;;0.00;0.00;;;;;;;3.44;100.00;101499.44;4975247;28;20532;-72
2023/02/15 09:23:00;;;;;;;0.47;0.47;;;;;;;3.63;100.00;101509.03;4974707;28;20182;-70
2023/02/15 09:25:25;;;;;;;0.00;0.00;;;;;;;3.66;100.00;101507.72;4974550;28;20294;-71
2023/02/15 09:27:51;;;;;;;0.00;0.00;;;;;;;3.77;100.00;101509.59;4974892;28;20178;-72
2023/02/15 09:30:16;;;;;;;0.23;0.23;;;;;;;3.83;100.00;101514.03;4974632;28;20178;-71
2023/02/15 09:32:42;;;;;;;1.70;1.70;;;;;;;4.01;100.00;101518.41;4974762;28;20306;-72
2023/02/15 09:35:07;;;;;;;1.03;1.03;;;;;;;4.08;100.00;101505.59;4974400;28;20496;-72
2023/02/15 09:37:32;;;;;;;2.33;1.33;;;;;;;4.14;100.00;101508.13;4973200;28;20205;-70
2023/02/15 09:39:58;;;;;;;2.83;1.90;;;;;;;4.13;100.00;101502.97;4974561;28;20182;-71
2023/02/15 09:42:54;;;;;;;0.27;0.27;;;;;;;4.10;100.00;101506.97;4974519;28;20174;-71
2023/02/15 09:45:41;;;;;;;4.70;3.57;;;;;;;4.13;99.81;101506.50;4974191;28;20182;-72
2023/02/15 09:48:30;;;;;;;5.10;3.17;;;;;;;4.14;100.00;101510.00;4974315;28;20641;-70
2023/02/15 09:51:18;;;;;;;3.83;3.43;;;;;;;4.07;99.15;101515.59;4974374;28;20182;-72
2023/02/15 09:53:50;;;;;;;3.50;3.20;;;;;;;4.01;100.00;101513.00;4974014;28;20198;-71
2023/02/15 09:56:43;;;;;;;3.47;3.17;;;;;;;3.96;100.00;101510.22;4974174;28;20182;-74
2023/02/15 09:59:38;;;;;;;5.27;3.80;;;;;;;4.01;100.00;101505.72;4973245;28;20225;-69
2023/02/15 10:02:29;;;;;;;0.10;0.10;;;;;;;4.10;100.00;101498.06;4974537;28;20178;-72
2023/02/15 10:05:00;;;;;;;0.70;0.70;;;;;;;4.28;100.00;101500.53;4974121;28;20181;-70
2023/02/15 10:07:49;;;;;;;1.10;1.10;;;;;;;4.47;100.00;101506.53;4973928;28;20642;-72
2023/02/15 10:10:41;;;;;;;1.50;1.40;;;;;;;4.62;99.49;101495.16;4974070;28;20297;-71
2023/02/15 10:13:30;;;;;;;1.23;1.23;;;;;;;4.86;98.19;101485.81;4973795;28;20240;-72
2023/02/15 10:16:00;;;;;;;4.23;3.73;;;;;;;4.98;97.42;101483.81;4973863;28;20372;-71
2023/02/15 10:18:36;;;;;;;2.70;2.50;;;;;;;4.97;96.90;101490.31;4974067;28;20284;-76
2023/02/15 10:21:05;;;;;;;3.43;3.13;;;;;;;5.04;97.31;101484.72;4973724;28;20193;-80
2023/02/15 10:24:03;;;;;;;3.07;2.17;;;;;;;5.02;96.59;101490.38;4972082;28;20189;-79
2023/02/15 10:26:54;;;;;;;4.50;3.60;;;;;;;5.10;96.11;101502.69;4973801;28;20198;-81
2023/02/15 10:29:39;;;;;;;1.73;1.60;;;;;;;5.07;95.06;101498.59;4973225;28;20217;-82
2023/02/15 10:32:27;;;;;;;2.90;2.67;;;;;;;5.06;93.61;101498.81;4973218;28;20192;-79
2023/02/15 10:35:08;;;;;;;3.73;3.00;;;;;;;4.98;92.62;101493.84;4973114;28;20221;-79
2023/02/15 10:38:02;;;;;;;3.47;3.17;;;;;;;5.10;93.21;101502.69;4973489;28;20240;-79
2023/02/15 10:40:42;;;;;;;1.67;1.57;;;;;;;5.13;92.81;101491.34;4973649;28;20557;-82
2023/02/15 10:43:17;;;;;;;7.00;2.63;;;;;;;5.14;92.58;101487.56;4972115;28;20545;-81
2023/02/15 10:45:57;;;;;;;1.73;1.63;;;;;;;5.15;92.51;101489.22;4973175;28;20264;-80
2023/02/15 10:48:37;;;;;;;4.47;4.07;;;;;;;5.24;92.55;101487.72;4973178;28;20185;-82
2023/02/15 10:51:05;;;;;;;5.13;4.43;;;;;;;5.15;92.04;101491.91;4973234;28;20633;-80
2023/02/15 10:54:04;;;;;;;5.03;3.17;;;;;;;5.22;92.46;101489.03;4973039;28;20202;-83
2023/02/15 10:56:43;;;;;;;5.70;5.20;;;;;;;5.24;91.93;101482.31;4973040;28;20188;-78
2023/02/15 10:59:18;;;;;;;5.97;4.87;;;;;;;5.35;92.11;101488.66;4972954;28;20184;-82
2023/02/15 11:01:48;;;;;;;5.30;4.83;;;;;;;5.46;91.49;101484.19;4973045;28;20190;-79
2023/02/15 11:04:16;;;;;;;4.30;4.00;;;;;;;5.55;90.96;101478.09;4972738;28;20181;-77
2023/02/15 11:06:48;;;;;;;4.63;4.27;;;;;;;5.55;89.55;101486.22;4972937;28;20178;-80
2023/02/15 11:09:18;;;;;;;3.13;2.90;;;;;;;5.51;89.73;101482.38;4972747;28;20166;-80
2023/02/15 11:11:48;;;;;;;3.77;2.77;;;;;;;5.63;89.64;101482.22;4972683;28;20184;-78
2023/02/15 11:14:39;;;;;;;2.97;2.67;;;;;;;5.56;89.01;101478.91;4972389;28;20212;-80
2023/02/15 11:17:12;;;;;;;3.30;3.00;;;;;;;5.51;89.13;101484.28;4972732;28;20216;-81
2023/02/15 11:19:44;;;;;;;5.43;4.87;;;;;;;5.46;88.88;101482.31;4972569;28;20177;-77
2023/02/15 11:22:10;;;;;;;3.37;2.87;;;;;;;5.35;88.15;101480.53;4972703;28;20200;-80
2023/02/15 11:24:45;;;;;;;4.80;4.40;;;;;;;5.28;87.39;101472.59;4972409;28;20677;-81
2023/02/15 11:27:19;;;;;;;1.30;1.20;;;;;;;5.34;87.65;101468.06;4972499;28;20189;-79
2023/02/15 11:29:45;;;;;;;1.20;1.00;;;;;;;5.56;88.80;101473.50;4972500;28;20612;-79
2023/02/15 11:32:26;;;;;;;3.40;3.10;;;;;;;5.62;88.18;101462.44;4972355;28;20174;-81
2023/02/15 11:34:54;;;;;;;3.20;2.93;;;;;;;5.72;87.70;101453.63;4972180;28;20217;-78
2023/02/15 11:37:27;;;;;;;0.97;0.97;;;;;;;5.88;87.93;101458.13;4972613;28;20181;-80
2023/02/15 11:39:54;;;;;;;1.13;1.13;;;;;;;6.02;87.29;101444.19;4972337;28;20253;-73
2023/02/15 11:42:23;;;;;;;0.30;0.30;;;;;;;6.17;87.23;101441.63;4972315;28;20264;-77
2023/02/15 11:44:51;;;;;;;0.00;0.00;;;;;;;6.17;86.37;101447.06;4972439;28;20205;-79
2023/02/15 11:47:17;;;;;;;2.90;2.70;;;;;;;6.28;85.78;101443.38;4972169;28;20177;-78
2023/02/15 11:49:42;;;;;;;0.40;0.40;;;;;;;6.55;85.32;101438.72;4972206;28;20184;-76
2023/02/15 11:52:13;;;;;;;1.30;1.20;;;;;;;6.86;82.82;101433.47;4972117;28;20173;-77
2023/02/15 11:54:44;;;;;;;2.03;1.93;;;;;;;7.07;80.67;101421.63;4971949;28;20202;-77
2023/02/15 11:57:31;;;;;;;2.80;2.60;;;;;;;7.26;79.17;101423.94;4970597;28;20189;-76
2023/02/15 12:00:09;;;;;;;1.13;1.00;;;;;;;7.34;77.38;101417.97;4972025;28;20518;-78
2023/02/15 12:02:40;;;;;;;5.17;1.23;;;;;;;7.35;76.29;101416.88;4971770;28;20701;-75
2023/02/15 12:05:11;;;;;;;0.90;0.90;;;;;;;7.50;76.47;101422.38;4971673;28;20201;-76
2023/02/15 12:07:43;;;;;;;0.10;0.10;;;;;;;7.57;76.35;101420.22;4971753;28;20193;-73